Time;durP1;ratioP1;P1;durP2;ratioP2;P2;SDS_P1;SDS_P2;PMS_P1;PMS_P2;Temp;Humidity;BMP_temperature;BMP_pressure;BME280_temperature;BME280_humidity;BME280_pressure;Samples;Min_cycle;Max_cycle;Signal;HPM_P1;HPM_P2
2021/04/20 00:01:14;;;;;;;10.57;4.90;;;10.00;91.30;;;;;;5021174;28;20125;-89
2021/04/20 00:03:41;;;;;;;7.93;5.03;;;9.90;91.30;;;;;;5021572;28;20099;-89
2021/04/20 00:06:08;;;;;;;8.43;4.72;;;9.90;91.40;;;;;;5034258;28;20052;-89
2021/04/20 00:08:36;;;;;;;7.07;4.38;;;9.90;91.40;;;;;;5037456;28;20047;-89
2021/04/20 00:11:04;;;;;;;11.68;5.25;;;9.90;91.40;;;;;;5043345;28;20067;-89
2021/04/20 00:13:32;;;;;;;9.70;4.63;;;9.90;91.60;;;;;;5035536;28;20522;-89
2021/04/20 00:15:58;;;;;;;8.20;4.85;;;9.90;91.60;;;;;;5029573;28;20468;-89
2021/04/20 00:18:25;;;;;;;8.15;4.53;;;9.80;91.60;;;;;;5034203;28;20045;-89
2021/04/20 00:20:51;;;;;;;7.22;4.63;;;9.80;91.60;;;;;;5017629;28;20053;-89
2021/04/20 00:23:18;;;;;;;7.25;4.75;;;9.80;91.70;;;;;;5030363;28;20077;-89
2021/04/20 00:25:44;;;;;;;9.63;5.07;;;9.80;91.80;;;;;;5021836;28;20037;-88
2021/04/20 00:28:11;;;;;;;9.27;4.32;;;9.80;91.80;;;;;;5018167;28;20065;-89
2021/04/20 00:30:38;;;;;;;8.73;4.60;;;9.80;91.80;;;;;;5018869;28;20041;-89
2021/04/20 00:33:04;;;;;;;6.93;4.38;;;9.70;91.90;;;;;;5016274;28;20511;-89
2021/04/20 00:35:31;;;;;;;10.18;5.25;;;9.70;92.00;;;;;;5017743;28;20436;-89
2021/04/20 00:37:57;;;;;;;9.23;5.28;;;9.70;92.00;;;;;;5019511;28;20100;-89
2021/04/20 00:40:24;;;;;;;11.18;5.25;;;9.70;92.00;;;;;;5018436;28;20053;-89
2021/04/20 00:42:57;;;;;;;9.23;5.00;;;9.70;92.00;;;;;;5019032;28;20047;-89
2021/04/20 00:45:30;;;;;;;11.48;5.10;;;9.70;92.10;;;;;;5035568;28;21768;-89
2021/04/20 00:47:57;;;;;;;8.63;4.53;;;9.60;92.10;;;;;;5016785;28;20049;-89
2021/04/20 00:50:39;;;;;;;14.32;5.03;;;9.60;92.10;;;;;;5017801;28;20113;-89
2021/04/20 00:53:08;;;;;;;9.50;5.32;;;9.60;92.20;;;;;;5017627;28;20049;-89
2021/04/20 00:55:35;;;;;;;8.40;5.55;;;9.60;92.20;;;;;;5025596;28;20072;-89
2021/04/20 00:58:03;;;;;;;10.85;5.18;;;9.60;92.20;;;;;;5018483;28;20053;-89
2021/04/20 01:00:31;;;;;;;8.65;5.05;;;9.60;92.30;;;;;;5018186;28;20043;-89
2021/04/20 01:02:58;;;;;;;8.13;4.97;;;9.60;92.30;;;;;;5016425;28;20124;-89
2021/04/20 01:05:35;;;;;;;8.98;5.25;;;9.60;92.40;;;;;;5019557;28;20045;-89
2021/04/20 01:08:07;;;;;;;9.52;5.40;;;9.60;92.40;;;;;;5017865;28;20045;-89
2021/04/20 01:11:08;;;;;;;8.70;5.45;;;9.60;92.40;;;;;;5017194;28;20477;-89
2021/04/20 01:13:35;;;;;;;11.48;5.35;;;9.60;92.40;;;;;;5013019;28;20049;-89
2021/04/20 01:16:02;;;;;;;10.10;5.93;;;9.50;92.60;;;;;;5018099;28;20045;-89
2021/04/20 01:18:35;;;;;;;9.93;6.15;;;9.50;92.60;;;;;;5016938;28;20037;-89
2021/04/20 01:21:07;;;;;;;8.82;5.72;;;9.50;92.70;;;;;;5016086;28;20053;-89
2021/04/20 01:23:57;;;;;;;8.82;5.72;;;9.50;92.70;;;;;;5017630;28;20468;-89
2021/04/20 01:26:28;;;;;;;8.60;4.93;;;9.50;92.80;;;;;;5046239;28;20041;-88
2021/04/20 01:28:57;;;;;;;11.63;5.63;;;9.40;92.80;;;;;;5027804;28;20045;-89
2021/04/20 01:31:23;;;;;;;12.48;5.45;;;9.40;92.90;;;;;;5017312;28;20048;-88
2021/04/20 01:33:50;;;;;;;9.50;5.85;;;9.40;93.20;;;;;;5017433;28;20423;-88
2021/04/20 01:36:19;;;;;;;9.70;5.93;;;9.30;93.30;;;;;;5016461;28;20045;-89
2021/04/20 01:38:47;;;;;;;8.23;5.70;;;9.30;93.30;;;;;;5034585;28;20045;-88
2021/04/20 01:41:15;;;;;;;9.82;6.20;;;9.30;93.30;;;;;;5041439;28;20384;-89
2021/04/20 01:43:42;;;;;;;9.63;5.88;;;9.30;93.40;;;;;;5027973;28;20053;-88
2021/04/20 01:46:09;;;;;;;10.82;6.28;;;9.20;93.50;;;;;;5025122;28;20048;-89
2021/04/20 01:48:36;;;;;;;9.77;6.57;;;9.20;93.70;;;;;;5019171;28;20045;-88
2021/04/20 01:51:04;;;;;;;10.43;6.60;;;9.20;93.80;;;;;;5032941;28;20041;-89
2021/04/20 01:53:31;;;;;;;11.43;6.35;;;9.20;94.00;;;;;;5015535;28;20484;-88
2021/04/20 01:56:05;;;;;;;10.98;6.95;;;9.20;94.10;;;;;;5020032;28;20099;-88
2021/04/20 01:58:34;;;;;;;8.75;6.22;;;9.20;94.20;;;;;;5025603;28;20033;-89
2021/04/20 02:01:11;;;;;;;12.30;7.43;;;9.20;94.10;;;;;;5026174;28;20052;-89
2021/04/20 02:03:38;;;;;;;10.23;6.88;;;9.20;94.20;;;;;;5017847;28;20060;-89
2021/04/20 02:06:08;;;;;;;9.98;6.68;;;9.20;94.30;;;;;;5032224;28;20053;-88
2021/04/20 02:08:36;;;;;;;10.13;6.55;;;9.20;94.20;;;;;;5033950;28;20175;-88
2021/04/20 02:11:05;;;;;;;11.52;7.07;;;9.20;94.40;;;;;;5034101;28;20053;-89
2021/04/20 02:13:32;;;;;;;11.30;7.45;;;9.20;94.40;;;;;;5024788;28;20054;-88
2021/04/20 02:16:04;;;;;;;13.27;7.18;;;9.20;94.50;;;;;;5020242;28;20060;-88
2021/04/20 02:18:32;;;;;;;11.88;7.35;;;9.20;94.40;;;;;;5016846;28;20068;-88
2021/04/20 02:21:00;;;;;;;;;;;9.20;94.40;;;;;;5017764;28;20049;-88
2021/04/20 02:23:27;;;;;;;10.43;7.22;;;9.20;94.70;;;;;;5021903;28;19929;-89
2021/04/20 02:25:56;;;;;;;12.68;6.53;;;9.10;94.50;;;;;;5017786;28;20045;-87
2021/04/20 02:28:23;;;;;;;9.95;6.93;;;9.10;94.50;;;;;;5016488;28;20404;-88
2021/04/20 02:30:49;;;;;;;12.88;7.20;;;9.10;94.60;;;;;;5017373;28;20046;-88
2021/04/20 02:33:16;;;;;;;11.02;7.07;;;9.10;94.70;;;;;;5015177;28;20052;-89
2021/04/20 02:35:43;;;;;;;12.30;7.80;;;9.10;94.70;;;;;;5034405;28;20049;-89
2021/04/20 02:38:14;;;;;;;20.63;7.13;;;9.10;94.70;;;;;;5016668;28;20050;-88
2021/04/20 02:40:41;;;;;;;11.55;7.38;;;9.10;94.80;;;;;;5020122;28;20124;-88
2021/04/20 02:43:07;;;;;;;9.63;7.10;;;9.10;94.80;;;;;;5030475;28;20057;-89
2021/04/20 02:45:34;;;;;;;16.52;7.57;;;9.10;94.80;;;;;;5037165;28;20048;-89
2021/04/20 02:48:05;;;;;;;12.05;7.47;;;9.00;94.80;;;;;;5017160;28;20049;-88
2021/04/20 02:50:33;;;;;;;12.73;7.25;;;9.00;94.90;;;;;;5016384;28;20129;-89
2021/04/20 02:53:00;;;;;;;9.77;7.20;;;9.00;94.90;;;;;;5026504;28;20058;-89
2021/04/20 02:55:27;;;;;;;11.52;8.15;;;9.00;95.00;;;;;;5026201;28;20107;-88
2021/04/20 02:57:57;;;;;;;8.55;6.72;;;8.90;95.00;;;;;;5020451;28;20045;-89
2021/04/20 03:00:25;;;;;;;12.75;7.43;;;9.00;95.10;;;;;;5019281;28;20051;-88
2021/04/20 03:03:01;;;;;;;10.70;7.13;;;8.90;95.40;;;;;;5018735;28;20045;-88
2021/04/20 03:05:29;;;;;;;10.80;7.55;;;8.90;95.20;;;;;;5032099;28;20128;-91
2021/04/20 03:07:56;;;;;;;13.20;7.70;;;8.90;95.20;;;;;;5020999;28;20065;-90
2021/04/20 03:10:24;;;;;;;11.25;7.38;;;8.90;95.20;;;;;;5019394;28;20802;-90
2021/04/20 03:12:51;;;;;;;11.40;7.50;;;8.90;95.20;;;;;;5031328;28;20045;-90
2021/04/20 03:15:18;;;;;;;11.35;7.43;;;8.80;95.30;;;;;;5019351;28;20117;-90
2021/04/20 03:17:47;;;;;;;12.32;7.43;;;8.80;95.30;;;;;;5018338;28;20499;-88
2021/04/20 03:20:16;;;;;;;11.32;8.43;;;8.80;95.30;;;;;;5032410;28;20503;-88
2021/04/20 03:22:43;;;;;;;12.98;7.72;;;8.80;95.40;;;;;;5024137;28;20069;-87
2021/04/20 03:25:10;;;;;;;14.38;7.60;;;8.80;95.50;;;;;;5011495;28;20049;-90
2021/04/20 03:27:42;;;;;;;11.07;7.75;;;8.80;95.50;;;;;;5023571;28;20067;-88
2021/04/20 03:30:11;;;;;;;11.80;7.85;;;8.80;95.60;;;;;;5034585;28;20039;-88
2021/04/20 03:32:42;;;;;;;9.25;7.70;;;8.80;95.60;;;;;;5018294;28;20038;-88
2021/04/20 03:35:15;;;;;;;12.15;8.05;;;8.70;95.60;;;;;;5022010;28;20060;-88
2021/04/20 03:37:57;;;;;;;12.93;8.38;;;8.70;95.70;;;;;;5030300;28;20048;-88
2021/04/20 03:40:25;;;;;;;10.48;8.50;;;8.70;95.70;;;;;;5025228;28;20049;-88
2021/04/20 03:42:56;;;;;;;12.43;7.93;;;8.70;95.80;;;;;;5020328;28;20077;-87
2021/04/20 03:45:29;;;;;;;13.60;8.38;;;8.70;95.80;;;;;;5019679;28;20041;-88
2021/04/20 03:48:11;;;;;;;11.43;8.00;;;8.70;95.90;;;;;;5017569;28;20060;-88
2021/04/20 03:50:41;;;;;;;12.35;8.60;;;8.70;95.90;;;;;;5021494;28;20464;-88
2021/04/20 03:53:14;;;;;;;15.50;8.18;;;8.70;96.00;;;;;;5019252;28;20066;-88
2021/04/20 03:55:47;;;;;;;12.45;8.40;;;8.60;96.00;;;;;;5033116;28;20507;-88
2021/04/20 03:58:15;;;;;;;10.30;8.30;;;8.70;96.10;;;;;;5032433;28;20038;-88
2021/04/20 04:00:43;;;;;;;12.18;8.48;;;8.60;96.10;;;;;;5019951;28;20456;-90
2021/04/20 04:03:11;;;;;;;12.45;8.57;;;8.60;96.10;;;;;;5017752;28;20073;-88
2021/04/20 04:05:40;;;;;;;15.98;8.95;;;8.60;96.20;;;;;;5038421;28;20037;-88
2021/04/20 04:08:09;;;;;;;11.82;8.15;;;8.60;96.30;;;;;;5035924;28;20041;-88
2021/04/20 04:10:38;;;;;;;14.15;8.38;;;8.60;96.20;;;;;;5023911;28;20045;-88
2021/04/20 04:13:07;;;;;;;12.30;8.73;;;8.60;96.20;;;;;;5019826;28;20054;-90
2021/04/20 04:15:36;;;;;;;14.88;8.57;;;8.60;96.20;;;;;;5010054;28;20047;-88
2021/04/20 04:18:09;;;;;;;13.75;9.02;;;8.50;96.30;;;;;;5017939;28;20054;-90
2021/04/20 04:20:37;;;;;;;12.68;8.75;;;8.50;96.30;;;;;;5035675;28;20044;-88
2021/04/20 04:23:11;;;;;;;12.77;8.37;;;8.50;96.30;;;;;;5035309;28;20407;-90
2021/04/20 04:25:46;;;;;;;16.77;9.00;;;8.40;96.30;;;;;;5023175;28;20345;-88
2021/04/20 04:28:16;;;;;;;14.10;8.60;;;8.40;96.40;;;;;;5018380;28;20055;-89
2021/04/20 04:30:45;;;;;;;14.13;8.63;;;8.40;96.60;;;;;;5018751;28;20045;-89
2021/04/20 04:33:13;;;;;;;13.30;9.23;;;8.30;96.60;;;;;;5017669;28;20045;-91
2021/04/20 04:35:43;;;;;;;13.73;8.77;;;8.30;96.80;;;;;;5016248;28;20461;-91
2021/04/20 04:38:11;;;;;;;11.45;8.55;;;8.20;96.80;;;;;;5032990;28;20080;-90
2021/04/20 04:40:39;;;;;;;14.82;8.57;;;8.20;96.90;;;;;;5022480;28;20393;-88
2021/04/20 04:43:06;;;;;;;14.10;9.32;;;8.20;97.00;;;;;;5012766;28;20118;-89
2021/04/20 04:45:33;;;;;;;15.32;9.32;;;8.10;97.00;;;;;;5019033;28;20056;-88
2021/04/20 04:48:01;;;;;;;17.67;9.30;;;8.10;97.10;;;;;;5034404;28;20049;-89
2021/04/20 04:50:29;;;;;;;12.20;9.20;;;8.10;97.20;;;;;;5019405;28;20042;-89
2021/04/20 04:52:58;;;;;;;11.23;8.57;;;8.00;97.50;;;;;;5007039;28;20057;-91
2021/04/20 04:55:24;;;;;;;13.90;9.55;;;8.00;97.40;;;;;;5026334;28;20049;-91
2021/04/20 04:57:53;;;;;;;17.58;9.25;;;7.90;97.40;;;;;;5018728;28;20045;-89
2021/04/20 05:00:24;;;;;;;17.80;9.63;;;7.90;97.50;;;;;;5007688;28;20053;-88
2021/04/20 05:02:51;;;;;;;10.93;9.40;;;7.90;97.50;;;;;;5036139;28;20484;-89
2021/04/20 05:05:19;;;;;;;19.48;10.77;;;7.80;97.60;;;;;;5020304;28;20049;-89
2021/04/20 05:07:46;;;;;;;12.10;8.25;;;7.80;97.60;;;;;;5010092;28;20120;-91
2021/04/20 05:10:13;;;;;;;15.10;9.77;;;7.80;97.60;;;;;;5017133;28;20065;-89
2021/04/20 05:12:41;;;;;;;13.00;9.17;;;7.80;97.90;;;;;;5019401;28;20080;-88
2021/04/20 05:15:15;;;;;;;14.38;9.23;;;7.80;97.70;;;;;;5047343;28;20041;-89
2021/04/20 05:17:44;;;;;;;12.40;9.63;;;7.70;97.80;;;;;;5054397;28;20053;-92
2021/04/20 05:20:21;;;;;;;17.92;10.10;;;7.70;97.80;;;;;;5023310;28;20065;-89
2021/04/20 05:22:49;;;;;;;11.85;9.38;;;7.70;97.90;;;;;;5017523;28;20099;-89
2021/04/20 05:25:18;;;;;;;15.63;9.80;;;7.70;97.90;;;;;;5024675;28;20079;-89
2021/04/20 05:27:51;;;;;;;19.83;9.88;;;7.60;98.00;;;;;;5029380;28;20053;-89
2021/04/20 05:30:18;;;;;;;17.05;10.15;;;7.60;98.00;;;;;;5015681;28;20477;-91
2021/04/20 05:32:49;;;;;;;15.43;10.25;;;7.60;98.10;;;;;;5035596;28;20048;-89
2021/04/20 05:35:16;;;;;;;11.57;9.50;;;7.60;98.20;;;;;;5034114;28;20056;-89
2021/04/20 05:37:46;;;;;;;17.95;13.70;;;7.50;98.30;;;;;;5018263;28;20037;-89
2021/04/20 05:40:26;;;;;;;15.35;12.93;;;7.50;98.30;;;;;;5015319;28;20042;-89
2021/04/20 05:42:54;;;;;;;15.00;10.88;;;7.50;98.40;;;;;;5022072;28;20058;-89
2021/04/20 05:45:23;;;;;;;14.43;10.63;;;7.50;98.40;;;;;;5032369;28;20330;-90
2021/04/20 05:47:53;;;;;;;12.25;10.52;;;7.50;98.50;;;;;;5021309;28;20473;-92
2021/04/20 05:50:21;;;;;;;20.98;10.30;;;7.40;98.60;;;;;;5036570;28;20103;-89
2021/04/20 05:52:47;;;;;;;19.70;11.45;;;7.40;98.80;;;;;;5020926;28;20429;-89
2021/04/20 05:55:15;;;;;;;21.10;10.80;;;7.40;99.00;;;;;;5016862;28;20072;-89
2021/04/20 05:57:49;;;;;;;12.00;10.13;;;7.40;99.00;;;;;;5019190;28;20051;-88
2021/04/20 06:00:17;;;;;;;13.25;11.25;;;7.40;99.20;;;;;;5016680;28;20072;-88
2021/04/20 06:02:47;;;;;;;16.93;11.83;;;7.40;99.20;;;;;;5034360;28;20120;-89
2021/04/20 06:05:16;;;;;;;17.73;11.18;;;7.40;99.30;;;;;;5019379;28;20049;-89
2021/04/20 06:07:46;;;;;;;15.30;10.18;;;7.40;99.40;;;;;;5027411;28;20251;-88
2021/04/20 06:10:13;;;;;;;15.90;10.48;;;7.40;99.50;;;;;;5028563;28;20504;-88
2021/04/20 06:12:41;;;;;;;19.85;10.48;;;7.40;99.60;;;;;;5020105;28;20044;-89
2021/04/20 06:15:09;;;;;;;13.13;10.82;;;7.40;99.70;;;;;;5032131;28;20128;-89
2021/04/20 06:17:40;;;;;;;15.43;10.77;;;7.40;99.80;;;;;;5015474;28;20041;-88
2021/04/20 06:20:12;;;;;;;20.13;11.00;;;7.40;99.90;;;;;;5016929;28;20232;-89
2021/04/20 06:22:41;;;;;;;15.80;11.13;;;7.50;99.90;;;;;;5016857;28;20389;-91
2021/04/20 06:25:12;;;;;;;17.60;11.25;;;7.50;99.90;;;;;;5021535;28;20129;-91
2021/04/20 06:27:39;;;;;;;14.70;12.48;;;7.60;99.90;;;;;;5020615;28;20044;-88
2021/04/20 06:30:08;;;;;;;14.13;11.55;;;7.70;99.90;;;;;;5036297;28;20054;-90
2021/04/20 06:32:40;;;;;;;17.02;11.50;;;7.80;99.90;;;;;;5025128;28;20076;-89
2021/04/20 06:35:11;;;;;;;14.45;11.27;;;7.90;99.90;;;;;;5023237;28;20049;-89
2021/04/20 06:37:39;;;;;;;19.45;11.25;;;8.00;99.90;;;;;;5025750;28;20112;-89
2021/04/20 06:40:09;;;;;;;17.42;11.60;;;8.10;99.90;;;;;;5036700;28;20049;-89
2021/04/20 06:42:43;;;;;;;18.48;13.35;;;8.10;99.90;;;;;;5037449;28;20041;-90
2021/04/20 06:45:12;;;;;;;21.65;13.32;;;8.30;99.90;;;;;;5035852;28;20051;-90
2021/04/20 06:47:45;;;;;;;16.48;11.18;;;8.40;99.90;;;;;;5019725;28;20485;-90
2021/04/20 06:50:16;;;;;;;14.85;12.18;;;8.50;99.90;;;;;;5020236;28;20049;-90
2021/04/20 06:52:58;;;;;;;13.45;11.55;;;8.60;99.90;;;;;;5027371;28;20059;-90
2021/04/20 06:55:35;;;;;;;15.60;11.32;;;8.80;99.90;;;;;;5047031;28;20095;-89
2021/04/20 06:58:12;;;;;;;15.88;11.13;;;8.90;99.90;;;;;;5023699;28;20132;-90
2021/04/20 07:00:55;;;;;;;13.27;10.90;;;9.10;99.90;;;;;;5021277;28;20048;-90
2021/04/20 07:03:39;;;;;;;15.57;11.13;;;9.20;99.90;;;;;;5019782;28;20037;-90
2021/04/20 07:06:17;;;;;;;14.23;10.27;;;9.40;99.90;;;;;;5017854;28;20060;-89
2021/04/20 07:09:15;;;;;;;14.40;10.30;;;9.50;99.80;;;;;;5034430;28;20049;-90
2021/04/20 07:11:48;;;;;;;13.33;10.50;;;9.70;99.40;;;;;;4998024;28;20090;-90
2021/04/20 07:14:42;;;;;;;16.35;11.05;;;9.90;99.10;;;;;;5035724;28;20374;-90
2021/04/20 07:17:11;;;;;;;13.48;10.55;;;10.10;99.00;;;;;;5029775;28;20063;-90
2021/04/20 07:20:05;;;;;;;13.63;10.25;;;10.30;98.60;;;;;;5030193;28;20088;-89
2021/04/20 07:23:08;;;;;;;12.27;10.23;;;10.50;98.30;;;;;;5024440;28;20385;-90
2021/04/20 07:25:53;;;;;;;13.88;10.00;;;10.70;98.00;;;;;;5029000;28;20110;-89
2021/04/20 07:28:53;;;;;;;14.45;9.82;;;10.90;97.70;;;;;;5030160;28;20045;-90
2021/04/20 07:31:54;;;;;;;10.43;9.00;;;11.10;97.50;;;;;;5026721;28;20045;-89
2021/04/20 07:34:42;;;;;;;10.50;8.63;;;11.40;97.20;;;;;;5019561;28;20056;-90
2021/04/20 07:37:46;;;;;;;16.55;10.13;;;11.60;96.90;;;;;;5018904;28;20072;-89
2021/04/20 07:40:25;;;;;;;14.13;9.07;;;11.80;96.60;;;;;;5021804;28;20508;-90
2021/04/20 07:42:51;;;;;;;12.63;9.18;;;11.90;96.20;;;;;;5022669;28;20048;-89
2021/04/20 07:45:24;;;;;;;13.35;9.38;;;12.10;95.90;;;;;;5026419;28;20045;-89
2021/04/20 07:47:59;;;;;;;9.82;8.77;;;12.30;95.70;;;;;;5047988;28;20045;-89
2021/04/20 07:50:35;;;;;;;13.07;8.50;;;12.40;95.60;;;;;;5042359;28;20046;-89
2021/04/20 07:53:20;;;;;;;12.48;8.60;;;12.60;95.00;;;;;;5026774;28;20061;-89
2021/04/20 07:55:56;;;;;;;12.23;7.75;;;12.80;94.90;;;;;;5024470;28;20812;-89
2021/04/20 07:58:27;;;;;;;12.27;7.60;;;13.00;94.60;;;;;;5014404;28;20046;-89
2021/04/20 08:01:11;;;;;;;10.50;7.63;;;13.10;94.10;;;;;;5021888;28;20487;-89
2021/04/20 08:03:59;;;;;;;13.85;7.78;;;13.30;93.90;;;;;;4999834;28;20125;-89
2021/04/20 08:06:28;;;;;;;10.38;7.00;;;13.50;93.40;;;;;;5025879;28;20498;-88
2021/04/20 08:09:01;;;;;;;10.63;7.68;;;13.60;93.40;;;;;;5000241;28;20053;-88
2021/04/20 08:11:42;;;;;;;13.50;7.47;;;13.80;93.20;;;;;;5008096;28;20052;-90
2021/04/20 08:14:30;;;;;;;12.48;8.30;;;13.90;93.00;;;;;;5023393;28;20033;-89
2021/04/20 08:17:10;;;;;;;20.23;8.93;;;14.10;93.00;;;;;;5002958;28;20489;-89
2021/04/20 08:19:52;;;;;;;11.35;7.63;;;14.30;93.00;;;;;;5023759;28;20111;-88
2021/04/20 08:22:19;;;;;;;12.85;8.48;;;14.40;92.50;;;;;;5009463;28;20099;-89
2021/04/20 08:25:01;;;;;;;12.75;7.78;;;14.60;92.50;;;;;;5015072;28;20144;-90
2021/04/20 08:27:35;;;;;;;13.05;8.05;;;14.70;92.20;;;;;;5008666;28;20048;-89
2021/04/20 08:30:41;;;;;;;9.95;7.45;;;14.80;91.90;;;;;;5024526;28;20049;-89
2021/04/20 08:33:32;;;;;;;12.38;6.72;;;15.00;91.10;;;;;;4895401;29;20056;-89
2021/04/20 08:36:03;;;;;;;11.27;6.20;;;15.10;90.60;;;;;;4894908;29;20156;-89
2021/04/20 08:38:47;;;;;;;11.93;7.85;;;15.20;90.30;;;;;;4909273;29;20044;-89
2021/04/20 08:41:24;;;;;;;10.68;6.93;;;15.20;89.90;;;;;;4912283;29;20044;-89
2021/04/20 08:44:12;;;;;;;9.35;7.03;;;15.30;90.00;;;;;;4910687;29;20427;-89
2021/04/20 08:46:58;;;;;;;;;;;15.30;89.30;;;;;;4889955;29;20107;-89
2021/04/20 08:49:43;;;;;;;11.13;8.18;;;15.30;88.50;;;;;;4906778;29;19975;-89
2021/04/20 08:52:27;;;;;;;10.27;7.20;;;15.40;89.50;;;;;;4894676;29;20045;-88
2021/04/20 08:55:20;;;;;;;11.18;6.30;;;15.50;89.00;;;;;;4909015;29;20503;-89
2021/04/20 08:58:13;;;;;;;9.68;6.45;;;15.60;88.00;;;;;;4865173;29;20045;-90
2021/04/20 09:00:57;;;;;;;12.18;6.40;;;15.60;87.90;;;;;;4854036;29;20077;-89
2021/04/20 09:03:32;;;;;;;7.35;5.47;;;15.70;87.00;;;;;;4869970;29;21692;-90
2021/04/20 09:06:08;;;;;;;11.85;6.53;;;15.80;85.00;;;;;;4871232;29;20144;-89
2021/04/20 09:08:45;;;;;;;8.95;5.88;;;15.80;84.20;;;;;;4861986;29;20045;-89
2021/04/20 09:11:20;;;;;;;9.37;5.30;;;15.80;83.90;;;;;;4932343;28;20075;-89
2021/04/20 09:14:00;;;;;;;10.15;5.57;;;15.90;84.30;;;;;;4946732;28;20373;-86
2021/04/20 09:16:53;;;;;;;10.88;5.63;;;16.00;81.00;;;;;;4950116;28;20117;-87
2021/04/20 09:19:49;;;;;;;6.78;4.90;;;16.00;80.80;;;;;;4949428;28;20051;-88
2021/04/20 09:22:37;;;;;;;10.20;5.40;;;16.10;80.80;;;;;;4944538;28;20138;-88
2021/04/20 09:25:16;;;;;;;8.77;5.47;;;16.20;79.10;;;;;;4949991;28;20573;-87
2021/04/20 09:28:03;;;;;;;11.25;5.80;;;16.20;81.20;;;;;;4964534;28;20043;-88
2021/04/20 09:30:57;;;;;;;8.50;5.30;;;16.20;79.60;;;;;;4938877;28;20058;-85
2021/04/20 09:33:31;;;;;;;8.40;5.00;;;16.30;79.50;;;;;;4946895;28;20478;-88
2021/04/20 09:36:00;;;;;;;7.35;4.90;;;16.50;80.20;;;;;;5019096;28;20503;-88
2021/04/20 09:38:27;;;;;;;11.57;5.03;;;16.60;79.30;;;;;;5029234;28;20116;-88
2021/04/20 09:40:54;;;;;;;5.82;4.20;;;16.60;79.00;;;;;;5023942;28;20128;-88
2021/04/20 09:43:24;;;;;;;7.55;4.03;;;16.80;78.90;;;;;;5016466;28;20077;-89
2021/04/20 09:46:07;;;;;;;10.50;4.47;;;16.90;78.80;;;;;;5021411;28;20045;-89
2021/04/20 09:49:05;;;;;;;7.43;4.78;;;17.10;77.80;;;;;;5018418;28;20067;-89
2021/04/20 09:51:37;;;;;;;;;;;17.30;74.30;;;;;;5018461;28;20444;-88
2021/04/20 09:54:29;;;;;;;6.22;4.38;;;17.30;73.40;;;;;;5020109;28;20028;-88
2021/04/20 09:57:00;;;;;;;6.72;4.38;;;17.30;74.30;;;;;;5010688;28;20404;-88
2021/04/20 09:59:45;;;;;;;7.20;4.40;;;17.40;74.50;;;;;;5007355;28;20072;-88
2021/04/20 10:02:36;;;;;;;7.90;4.93;;;17.40;73.80;;;;;;5013787;28;20099;-87
2021/04/20 10:05:31;;;;;;;8.55;5.40;;;17.40;73.40;;;;;;5014324;28;20388;-89
2021/04/20 10:08:16;;;;;;;8.52;4.78;;;17.50;74.00;;;;;;5013719;28;20533;-89
2021/04/20 10:10:54;;;;;;;7.40;4.88;;;17.60;74.40;;;;;;5013803;28;20465;-88
2021/04/20 10:13:54;;;;;;;7.20;4.70;;;17.60;72.60;;;;;;5009033;28;20100;-88
2021/04/20 10:16:30;;;;;;;8.43;4.82;;;17.60;72.80;;;;;;5006188;28;20480;-89
2021/04/20 10:19:22;;;;;;;8.30;4.50;;;17.70;73.20;;;;;;5014652;28;20128;-90
2021/04/20 10:22:28;;;;;;;7.97;4.65;;;17.90;72.70;;;;;;5001870;28;20353;-91
2021/04/20 10:25:39;;;;;;;8.10;5.30;;;18.10;74.00;;;;;;4992826;28;20057;-91
2021/04/20 10:28:20;;;;;;;8.65;4.60;;;18.20;72.80;;;;;;4939801;28;20138;-90
2021/04/20 10:30:52;;;;;;;8.27;5.38;;;18.30;71.40;;;;;;4956067;28;20078;-90
2021/04/20 10:33:26;;;;;;;6.88;5.15;;;18.40;72.60;;;;;;4939249;28;20504;-89
2021/04/20 10:36:03;;;;;;;8.82;5.07;;;18.40;71.60;;;;;;4956443;28;20047;-89
2021/04/20 10:38:32;;;;;;;10.68;5.55;;;18.40;70.70;;;;;;4928657;28;20147;-89
2021/04/20 10:41:21;;;;;;;12.80;5.60;;;18.50;71.40;;;;;;4941799;28;20075;-89
2021/04/20 10:43:50;;;;;;;7.88;5.00;;;18.60;70.60;;;;;;4925999;28;20134;-89
2021/04/20 10:46:23;;;;;;;11.88;5.88;;;18.70;71.40;;;;;;4931561;29;20044;-88
2021/04/20 10:48:55;;;;;;;8.95;5.30;;;18.60;70.70;;;;;;4934601;29;20436;-89
2021/04/20 10:51:37;;;;;;;9.20;4.80;;;18.50;70.10;;;;;;4933377;29;20058;-89
2021/04/20 10:54:07;;;;;;;9.43;5.07;;;18.50;69.50;;;;;;4948684;28;20051;-90
2021/04/20 10:56:35;;;;;;;10.05;4.80;;;18.50;69.90;;;;;;4934384;28;20131;-90
2021/04/20 10:59:08;;;;;;;12.20;5.90;;;18.50;69.80;;;;;;4988945;28;20045;-90
2021/04/20 11:01:36;;;;;;;9.65;4.88;;;18.60;67.70;;;;;;5006949;28;20048;-89
2021/04/20 11:04:05;;;;;;;8.35;4.53;;;18.60;68.50;;;;;;5007573;28;20053;-89
2021/04/20 11:07:10;;;;;;;9.10;4.75;;;18.60;68.00;;;;;;5017645;28;20046;-89
2021/04/20 11:09:37;;;;;;;8.75;5.68;;;18.70;67.70;;;;;;5011911;28;20052;-89
2021/04/20 11:12:18;;;;;;;9.00;5.03;;;18.80;68.30;;;;;;5023251;28;20053;-89
2021/04/20 11:14:50;;;;;;;8.68;4.95;;;18.80;67.40;;;;;;5026658;28;20048;-89
2021/04/20 11:17:44;;;;;;;11.23;5.43;;;18.90;68.10;;;;;;5024683;28;20049;-89
2021/04/20 11:20:18;;;;;;;8.57;5.18;;;19.00;66.70;;;;;;5023916;28;20039;-88
2021/04/20 11:23:06;;;;;;;7.95;5.00;;;19.00;68.60;;;;;;5022127;28;20132;-89
2021/04/20 11:25:53;;;;;;;8.87;5.00;;;19.10;69.50;;;;;;5022413;28;20126;-89
2021/04/20 11:28:41;;;;;;;8.90;5.25;;;19.20;69.40;;;;;;5024747;28;20049;-87
2021/04/20 11:31:13;;;;;;;8.10;5.15;;;19.30;69.60;;;;;;5023890;28;20534;-88
2021/04/20 11:33:49;;;;;;;9.98;5.32;;;19.30;69.60;;;;;;5016981;28;20049;-87
2021/04/20 11:36:27;;;;;;;6.43;5.05;;;19.50;69.60;;;;;;5013778;28;20072;-88
2021/04/20 11:38:59;;;;;;;8.25;5.18;;;19.50;70.50;;;;;;4999749;28;20057;-88
2021/04/20 11:41:33;;;;;;;9.95;5.90;;;19.60;69.60;;;;;;5023553;28;20096;-88
2021/04/20 11:44:03;;;;;;;10.77;6.45;;;19.50;69.30;;;;;;5004045;28;20049;-88
2021/04/20 11:46:33;;;;;;;9.57;6.43;;;19.60;69.60;;;;;;4999041;28;20543;-87
2021/04/20 11:49:30;;;;;;;11.88;6.47;;;19.70;68.20;;;;;;4999101;28;20093;-88
2021/04/20 11:51:59;;;;;;;7.10;5.40;;;19.60;68.50;;;;;;4997835;28;20489;-88
2021/04/20 11:54:34;;;;;;;8.32;5.65;;;19.60;69.20;;;;;;5014773;28;20045;-88
2021/04/20 11:57:03;;;;;;;10.35;6.18;;;19.70;69.50;;;;;;4997774;28;20045;-88
2021/04/20 11:59:31;;;;;;;10.48;6.95;;;19.70;69.50;;;;;;5000990;28;20046;-87
2021/04/20 12:02:00;;;;;;;9.45;6.03;;;19.80;69.20;;;;;;4999290;28;20057;-88
2021/04/20 12:04:29;;;;;;;8.45;6.13;;;19.80;69.70;;;;;;4998812;28;20080;-88
2021/04/20 12:06:57;;;;;;;11.80;6.55;;;19.80;69.70;;;;;;4999428;28;20470;-88
2021/04/20 12:09:31;;;;;;;8.88;6.82;;;19.90;69.40;;;;;;4998571;28;20764;-88
2021/04/20 12:11:58;;;;;;;8.23;6.10;;;19.90;68.90;;;;;;4997361;28;20417;-88
2021/04/20 12:14:28;;;;;;;10.30;6.32;;;19.90;69.30;;;;;;5005105;28;20052;-88
2021/04/20 12:16:59;;;;;;;9.05;6.20;;;20.00;69.80;;;;;;5007739;28;20056;-88
2021/04/20 12:19:31;;;;;;;7.78;6.40;;;20.00;69.90;;;;;;5025506;28;20114;-88
2021/04/20 12:22:01;;;;;;;7.68;6.00;;;20.10;69.80;;;;;;5025052;28;20041;-87
2021/04/20 12:24:30;;;;;;;9.95;6.10;;;20.10;69.40;;;;;;5024243;28;20140;-89
2021/04/20 12:27:03;;;;;;;10.23;5.40;;;20.10;69.90;;;;;;5036055;28;20049;-88
2021/04/20 12:29:44;;;;;;;7.53;6.05;;;20.10;69.80;;;;;;5031318;28;20112;-89
2021/04/20 12:32:18;;;;;;;10.32;7.38;;;20.10;69.10;;;;;;5025595;28;20132;-88
2021/04/20 12:34:51;;;;;;;8.02;6.20;;;20.10;68.80;;;;;;5022107;28;20049;-89
2021/04/20 12:37:26;;;;;;;13.25;6.38;;;20.00;68.30;;;;;;5012119;28;20037;-90
2021/04/20 12:40:05;;;;;;;11.52;6.28;;;19.90;68.60;;;;;;5006859;28;20045;-89
2021/04/20 12:42:46;;;;;;;8.93;5.75;;;19.80;68.70;;;;;;5011959;28;20120;-89
2021/04/20 12:45:20;;;;;;;8.18;6.43;;;19.70;69.10;;;;;;5004699;28;20076;-90
2021/04/20 12:47:48;;;;;;;8.50;6.03;;;19.80;69.60;;;;;;5009866;28;20049;-90
2021/04/20 12:50:26;;;;;;;8.88;6.55;;;19.70;69.30;;;;;;5008241;28;20118;-90
2021/04/20 12:52:53;;;;;;;8.35;6.30;;;19.70;69.10;;;;;;5023889;28;20405;-90
2021/04/20 12:55:25;;;;;;;8.23;6.00;;;19.70;69.00;;;;;;5030127;28;20488;-90
2021/04/20 12:57:54;;;;;;;9.23;6.00;;;19.60;69.10;;;;;;5030365;28;20041;-89
2021/04/20 13:00:25;;;;;;;;;;;19.70;69.10;;;;;;5015751;28;20393;-89
2021/04/20 13:02:58;;;;;;;7.70;6.20;;;19.80;68.60;;;;;;5032649;28;19921;-89
2021/04/20 13:05:38;;;;;;;7.00;5.55;;;19.90;68.60;;;;;;5026437;28;20052;-89
2021/04/20 13:08:08;;;;;;;10.20;6.00;;;20.00;68.00;;;;;;5030678;28;20048;-89
2021/04/20 13:10:35;;;;;;;9.60;5.10;;;20.00;67.90;;;;;;5025744;28;20037;-90
2021/04/20 13:13:05;;;;;;;11.45;5.47;;;20.00;67.90;;;;;;5031937;28;20044;-89
2021/04/20 13:15:33;;;;;;;9.20;5.55;;;19.90;68.80;;;;;;5019992;28;20052;-89
2021/04/20 13:18:03;;;;;;;6.80;5.85;;;19.90;68.60;;;;;;5031183;28;20053;-88
2021/04/20 13:20:34;;;;;;;6.10;5.45;;;19.80;68.80;;;;;;5033643;28;20095;-89